createdAt,value
2024-02-16T00:01:42.368Z,101002.91
2024-02-16T00:04:10.757Z,101007.47
2024-02-16T00:06:39.227Z,101012.72
2024-02-16T00:09:11.441Z,101010.13
2024-02-16T00:11:40.026Z,101015.22
2024-02-16T00:14:08.450Z,101010.94
2024-02-16T00:16:37.038Z,101006.69
2024-02-16T00:19:05.763Z,101002.69
2024-02-16T00:21:34.346Z,101007.94
2024-02-16T00:24:04.217Z,101009.31
2024-02-16T00:26:34.226Z,100998.91
2024-02-16T00:29:02.703Z,101000.28
2024-02-16T00:31:33.536Z,100994.13
2024-02-16T00:34:02.108Z,100994.19
2024-02-16T00:36:32.029Z,100998.94
2024-02-16T00:39:00.859Z,100987.75
2024-02-16T00:41:29.322Z,100987.44
2024-02-16T00:43:59.159Z,100993.34
2024-02-16T00:46:27.734Z,100997.28
2024-02-16T00:48:56.441Z,100991.97
2024-02-16T00:51:27.563Z,100988.78
2024-02-16T00:53:56.096Z,100994.09
2024-02-16T00:56:24.735Z,100987.69
2024-02-16T00:58:53.178Z,100985.00
2024-02-16T01:01:23.984Z,100993.19
2024-02-16T01:03:53.222Z,100995.06
2024-02-16T01:06:22.086Z,100986.81
2024-02-16T01:08:50.736Z,100988.41
2024-02-16T01:11:20.686Z,100988.19
2024-02-16T01:13:49.324Z,100986.50
2024-02-16T01:16:18.878Z,100983.84
2024-02-16T01:18:48.890Z,100982.78
2024-02-16T01:21:17.789Z,100987.03
2024-02-16T01:23:46.215Z,100987.03
2024-02-16T01:26:15.011Z,100990.25
2024-02-16T01:28:43.587Z,100982.28
2024-02-16T01:31:13.032Z,100989.16
2024-02-16T01:33:41.600Z,100980.16
2024-02-16T01:36:11.961Z,100988.63
2024-02-16T01:38:40.341Z,101000.06
2024-02-16T01:41:10.229Z,100993.97
2024-02-16T01:43:38.646Z,100992.34
2024-02-16T01:46:07.130Z,100985.44
2024-02-16T01:48:35.818Z,100995.56
2024-02-16T01:51:04.802Z,100997.66
2024-02-16T01:53:34.900Z,100990.78
2024-02-16T01:56:03.444Z,101001.47
2024-02-16T01:58:31.953Z,101000.41
2024-02-16T02:01:00.465Z,100999.84
2024-02-16T02:03:29.035Z,100998.81
2024-02-16T02:05:57.822Z,101002.53
2024-02-16T02:08:28.558Z,100997.75
2024-02-16T02:10:58.404Z,101005.72
2024-02-16T02:13:26.817Z,101003.28
2024-02-16T02:15:56.638Z,101012.03
2024-02-16T02:18:25.367Z,101010.50
2024-02-16T02:20:54.867Z,101009.97
2024-02-16T02:23:24.660Z,101011.84
2024-02-16T02:25:53.048Z,101014.78
2024-02-16T02:28:25.175Z,101018.50
2024-02-16T02:30:54.792Z,101017.69
2024-02-16T02:33:23.449Z,101014.00
2024-02-16T02:35:52.661Z,101018.22
2024-02-16T02:38:21.054Z,101022.22
2024-02-16T02:40:51.509Z,101009.19
2024-02-16T02:43:23.228Z,101002.53
2024-02-16T02:45:51.609Z,101011.88
2024-02-16T02:48:20.036Z,101012.91
2024-02-16T02:50:48.718Z,101012.38
2024-02-16T02:53:17.419Z,101019.00
2024-02-16T02:55:45.768Z,101022.22
2024-02-16T02:58:15.723Z,101016.84
2024-02-16T03:00:44.242Z,101014.69
2024-02-16T03:03:12.852Z,101022.41
2024-02-16T03:05:44.524Z,101021.66
2024-02-16T03:08:13.152Z,101016.91
2024-02-16T03:10:41.540Z,101020.59
2024-02-16T03:13:10.357Z,101027.75
2024-02-16T03:15:40.220Z,101030.13
2024-02-16T03:18:10.554Z,101022.16
2024-02-16T03:20:40.090Z,101029.63
2024-02-16T03:23:08.460Z,101029.03
2024-02-16T03:25:36.799Z,101033.38
2024-02-16T03:28:05.522Z,101034.94
2024-02-16T03:30:35.004Z,101034.66
2024-02-16T03:33:05.059Z,101038.38
2024-02-16T03:35:33.560Z,101039.22
2024-02-16T03:38:01.924Z,101059.09
2024-02-16T03:40:30.869Z,101047.91
2024-02-16T03:42:59.514Z,101040.75
2024-02-16T03:45:29.820Z,101046.34
2024-02-16T03:47:58.481Z,101043.19
2024-02-16T03:50:28.589Z,101050.34
2024-02-16T03:52:56.939Z,101057.28
2024-02-16T03:55:25.315Z,101059.38
2024-02-16T03:57:53.939Z,101051.38
2024-02-16T04:00:22.547Z,101050.81
2024-02-16T04:02:50.978Z,101054.22
2024-02-16T04:05:19.549Z,101058.28
2024-02-16T04:07:49.317Z,101053.72
2024-02-16T04:10:17.851Z,101053.53
2024-02-16T04:12:46.278Z,101054.06
2024-02-16T04:15:15.056Z,101050.03
2024-02-16T04:17:44.118Z,101058.84
2024-02-16T04:20:13.565Z,101061.44
2024-02-16T04:22:41.985Z,101065.16
2024-02-16T04:25:12.073Z,101066.81
2024-02-16T04:27:40.855Z,101073.97
2024-02-16T04:30:10.206Z,101068.66
2024-02-16T04:32:38.747Z,101073.69
2024-02-16T04:35:08.108Z,101066.75
2024-02-16T04:37:36.610Z,101071.31
2024-02-16T04:40:07.065Z,101090.16
2024-02-16T04:42:37.042Z,101090.72
2024-02-16T04:45:06.847Z,101088.88
2024-02-16T04:47:35.968Z,101088.63
2024-02-16T04:50:04.629Z,101084.59
2024-02-16T04:52:33.094Z,101085.09
2024-02-16T04:55:01.654Z,101084.34
2024-02-16T04:57:30.224Z,101074.78
2024-02-16T05:00:00.085Z,101090.16
2024-02-16T05:02:28.521Z,101093.31
2024-02-16T05:04:57.796Z,101094.41
2024-02-16T05:07:27.592Z,101094.94
2024-02-16T05:09:59.661Z,101102.94
2024-02-16T05:12:28.551Z,101121.88
2024-02-16T05:14:57.478Z,101114.44
2024-02-16T05:17:27.658Z,101116.81
2024-02-16T05:19:56.373Z,101121.00
2024-02-16T05:22:24.868Z,101124.22
2024-02-16T05:24:53.424Z,101127.94
2024-02-16T05:27:21.850Z,101130.03
2024-02-16T05:29:51.875Z,101129.00
2024-02-16T05:32:20.355Z,101137.03
2024-02-16T05:34:50.893Z,101127.13
2024-02-16T05:37:21.509Z,101138.06
2024-02-16T05:39:58.446Z,101127.94
2024-02-16T05:42:27.436Z,101140.16
2024-02-16T05:44:56.212Z,101141.78
2024-02-16T05:47:24.749Z,101143.88
2024-02-16T05:49:54.762Z,101140.41
2024-02-16T05:52:24.461Z,101137.84
2024-02-16T05:54:53.064Z,101145.53
2024-02-16T05:57:21.594Z,101151.09
2024-02-16T05:59:52.510Z,101156.97
2024-02-16T06:02:21.668Z,101154.31
2024-02-16T06:04:51.059Z,101142.81
2024-02-16T06:07:21.116Z,101148.69
2024-02-16T06:09:54.182Z,101154.56
2024-02-16T06:12:23.077Z,101152.38
2024-02-16T06:14:51.645Z,101157.09
2024-02-16T06:17:20.048Z,101162.00
2024-02-16T06:19:49.373Z,101163.88
2024-02-16T06:22:17.891Z,101166.25
2024-02-16T06:24:47.816Z,101176.91
2024-02-16T06:27:17.084Z,101176.03
2024-02-16T06:29:45.532Z,101170.72
2024-02-16T06:32:15.019Z,101163.03
2024-02-16T06:34:43.635Z,101167.31
2024-02-16T06:37:12.116Z,101177.69
2024-02-16T06:39:41.153Z,101171.56
2024-02-16T06:42:13.867Z,101173.13
2024-02-16T06:44:42.833Z,101170.75
2024-02-16T06:47:11.450Z,101174.53
2024-02-16T06:49:39.828Z,101172.91
2024-02-16T06:52:10.581Z,101176.13
2024-02-16T06:54:39.100Z,101183.19
2024-02-16T06:57:10.434Z,101186.91
2024-02-16T06:59:41.723Z,101184.25
2024-02-16T07:02:10.569Z,101184.69
2024-02-16T07:04:39.122Z,101186.59
2024-02-16T07:07:07.983Z,101190.13
2024-02-16T07:09:36.770Z,101188.56
2024-02-16T07:12:07.098Z,101180.88
2024-02-16T07:14:35.567Z,101192.88
2024-02-16T07:17:08.774Z,101179.59
2024-02-16T07:19:37.218Z,101187.56
2024-02-16T07:22:08.019Z,101186.28
2024-02-16T07:24:36.840Z,101196.66
2024-02-16T07:27:05.471Z,101191.59
2024-02-16T07:29:33.865Z,101195.31
2024-02-16T07:32:02.451Z,101194.81
2024-02-16T07:34:32.431Z,101194.19
2024-02-16T07:37:00.923Z,101199.31
2024-02-16T07:39:30.213Z,101209.69
2024-02-16T07:41:58.886Z,101186.81
2024-02-16T07:44:27.332Z,101204.13
2024-02-16T07:46:55.709Z,101202.50
2024-02-16T07:49:24.232Z,101198.22
2024-02-16T07:51:54.162Z,101198.84
2024-02-16T07:54:22.587Z,101204.22
2024-02-16T07:56:52.921Z,101206.38
2024-02-16T07:59:21.739Z,101200.59
2024-02-16T08:01:50.169Z,101215.50
2024-02-16T08:04:24.431Z,101204.91
2024-02-16T08:06:54.409Z,101201.97
2024-02-16T08:09:22.844Z,101214.75
2024-02-16T08:11:51.610Z,101206.44
2024-02-16T08:14:20.940Z,101218.69
2024-02-16T08:16:50.401Z,101224.50
2024-02-16T08:19:21.733Z,101227.34
2024-02-16T08:21:50.198Z,101221.97
2024-02-16T08:24:20.385Z,101215.59
2024-02-16T08:26:48.784Z,101218.06
2024-02-16T08:29:17.181Z,101216.56
2024-02-16T08:31:46.242Z,101218.19
2024-02-16T08:34:15.926Z,101216.69
2024-02-16T08:36:46.818Z,101215.16
2024-02-16T08:39:14.729Z,101221.31
2024-02-16T08:41:45.380Z,101225.81
2024-02-16T08:44:13.807Z,101223.13
2024-02-16T08:46:42.445Z,101222.88
2024-02-16T08:49:11.843Z,101214.91
2024-02-16T08:51:40.540Z,101216.81
2024-02-16T08:54:10.859Z,101221.84
2024-02-16T08:56:41.021Z,101217.31
2024-02-16T08:59:10.977Z,101223.13
2024-02-16T09:01:40.663Z,101227.94
2024-02-16T09:04:09.264Z,101214.88
2024-02-16T09:06:38.306Z,101219.22
2024-02-16T09:09:08.179Z,101233.59
2024-02-16T09:11:37.698Z,101232.97
2024-02-16T09:14:06.081Z,101231.06
2024-02-16T09:16:35.884Z,101239.06
2024-02-16T09:19:04.612Z,101227.88
2024-02-16T09:21:33.098Z,101233.00
2024-02-16T09:24:03.083Z,101237.78
2024-02-16T09:26:34.914Z,101241.00
2024-02-16T09:29:03.653Z,101239.41
2024-02-16T09:31:32.007Z,101243.63
2024-02-16T09:34:01.828Z,101235.44
2024-02-16T09:36:30.198Z,101234.03
2024-02-16T09:38:58.631Z,101234.63
2024-02-16T09:41:27.150Z,101234.84
2024-02-16T09:43:55.642Z,101244.47
2024-02-16T09:46:25.697Z,101245.28
2024-02-16T09:48:55.549Z,101239.41
2024-02-16T09:51:25.828Z,101238.59
2024-02-16T09:53:59.637Z,101242.88
2024-02-16T09:56:28.559Z,101239.41
2024-02-16T09:58:57.254Z,101238.06
2024-02-16T10:01:26.252Z,101234.63
2024-02-16T10:03:55.027Z,101225.59
2024-02-16T10:06:25.155Z,101246.50
2024-02-16T10:08:55.005Z,101235.38
2024-02-16T10:11:25.967Z,101238.69
2024-02-16T10:13:58.854Z,101233.66
2024-02-16T10:16:29.152Z,101233.66
2024-02-16T10:19:00.029Z,101231.78
2024-02-16T10:21:30.917Z,101224.63
2024-02-16T10:24:05.732Z,101222.97
2024-02-16T10:26:38.473Z,101228.56
2024-02-16T10:29:09.390Z,101228.75
2024-02-16T10:31:37.981Z,101231.34
2024-02-16T10:34:08.304Z,101229.97
2024-02-16T10:36:39.740Z,101241.34
2024-02-16T10:39:10.084Z,101238.88
2024-02-16T10:41:40.615Z,101237.78
2024-02-16T10:44:09.057Z,101239.94
2024-02-16T10:46:37.472Z,101232.47
2024-02-16T10:49:07.842Z,101227.44
2024-02-16T10:51:41.714Z,101232.75
2024-02-16T10:54:11.329Z,101230.75
2024-02-16T10:56:40.718Z,101229.97
2024-02-16T10:59:12.218Z,101233.66
2024-02-16T11:01:41.747Z,101225.25
2024-02-16T11:04:11.856Z,101223.41
2024-02-16T11:07:01.214Z,101220.59
2024-02-16T11:09:30.368Z,101225.06
2024-02-16T11:12:02.405Z,101218.81
2024-02-16T11:14:37.840Z,101220.97
2024-02-16T11:17:12.139Z,101214.03
2024-02-16T11:19:42.724Z,101218.56
2024-02-16T11:22:14.093Z,101217.56
2024-02-16T11:24:46.755Z,101222.56
2024-02-16T11:27:16.923Z,101222.25
2024-02-16T11:29:45.583Z,101215.28
2024-02-16T11:32:14.180Z,101212.34
2024-02-16T11:34:43.281Z,101221.72
2024-02-16T11:37:16.099Z,101213.41
2024-02-16T11:39:46.753Z,101209.72
2024-02-16T11:42:16.488Z,101221.41
2024-02-16T11:44:54.675Z,101212.28
2024-02-16T11:47:27.748Z,101203.03
2024-02-16T11:50:05.976Z,101214.06
2024-02-16T11:52:36.782Z,101218.56
2024-02-16T11:55:06.347Z,101200.78
2024-02-16T11:57:35.534Z,101209.78
2024-02-16T12:00:09.058Z,101205.00
2024-02-16T12:02:38.564Z,101207.16
2024-02-16T12:05:08.818Z,101214.88
2024-02-16T12:07:42.162Z,101212.63
2024-02-16T12:10:11.971Z,101221.75
2024-02-16T12:12:40.672Z,101228.66
2024-02-16T12:15:10.173Z,101214.50
2024-02-16T12:17:38.555Z,101214.50
2024-02-16T12:20:15.251Z,101211.78
2024-02-16T12:22:45.789Z,101213.38
2024-02-16T12:25:18.770Z,101218.41
2024-02-16T12:27:47.417Z,101213.09
2024-02-16T12:30:17.243Z,101220.00
2024-02-16T12:32:45.829Z,101226.94
2024-02-16T12:35:14.470Z,101212.88
2024-02-16T12:37:44.408Z,101232.84
2024-02-16T12:40:13.258Z,101227.69
2024-02-16T12:42:42.159Z,101218.00
2024-02-16T12:45:11.932Z,101218.72
2024-02-16T12:47:40.602Z,101215.31
2024-02-16T12:50:09.949Z,101217.19
2024-02-16T12:52:47.024Z,101219.88
2024-02-16T12:55:21.108Z,101219.59
2024-02-16T12:57:50.180Z,101216.44
2024-02-16T13:00:19.690Z,101223.47
2024-02-16T13:02:48.120Z,101221.84
2024-02-16T13:05:16.848Z,101218.00
2024-02-16T13:07:45.633Z,101214.75
2024-02-16T13:10:14.338Z,101219.25
2024-02-16T13:12:45.030Z,101227.97
2024-02-16T13:15:23.056Z,101229.22
2024-02-16T13:17:57.366Z,101231.28
2024-02-16T13:20:26.248Z,101230.53
2024-02-16T13:22:54.793Z,101224.75
2024-02-16T13:25:23.562Z,101238.75
2024-02-16T13:27:53.335Z,101230.06
2024-02-16T13:30:21.813Z,101232.94
2024-02-16T13:32:50.261Z,101232.13
2024-02-16T13:35:21.439Z,101239.06
2024-02-16T13:37:50.560Z,101243.03
2024-02-16T13:40:19.670Z,101246.63
2024-02-16T13:42:49.116Z,101243.56
2024-02-16T13:45:19.178Z,101251.59
2024-02-16T13:47:47.664Z,101263.19
2024-02-16T13:50:16.335Z,101253.63
2024-02-16T13:52:44.963Z,101263.59
2024-02-16T13:55:13.562Z,101268.19
2024-02-16T13:57:42.213Z,101271.97
2024-02-16T14:00:11.450Z,101269.16
2024-02-16T14:02:41.419Z,101267.66
2024-02-16T14:05:09.826Z,101272.31
2024-02-16T14:07:46.483Z,101281.94
2024-02-16T14:10:19.693Z,101273.81
2024-02-16T14:12:48.528Z,101278.03
2024-02-16T14:15:17.923Z,101275.50
2024-02-16T14:17:48.225Z,101281.41
2024-02-16T14:20:16.876Z,101284.28
2024-02-16T14:22:45.295Z,101288.88
2024-02-16T14:25:14.845Z,101290.94
2024-02-16T14:27:44.469Z,101293.59
2024-02-16T14:30:14.360Z,101292.66
2024-02-16T14:32:43.242Z,101299.00
2024-02-16T14:35:13.365Z,101305.28
2024-02-16T14:37:41.819Z,101298.06
2024-02-16T14:40:12.699Z,101307.53
2024-02-16T14:42:41.974Z,101311.63
2024-02-16T14:45:21.198Z,101307.59
2024-02-16T14:47:50.578Z,101317.25
2024-02-16T14:50:20.655Z,101312.66
2024-02-16T14:52:49.297Z,101311.88
2024-02-16T14:55:17.714Z,101318.69
2024-02-16T14:57:46.627Z,101323.28
2024-02-16T15:00:16.097Z,101330.13
2024-02-16T15:02:44.903Z,101325.56
2024-02-16T15:05:14.193Z,101326.19
2024-02-16T15:07:44.358Z,101331.91
2024-02-16T15:10:13.195Z,101329.56
2024-02-16T15:12:44.458Z,101325.44
2024-02-16T15:15:14.175Z,101327.00
2024-02-16T15:17:42.977Z,101329.41
2024-02-16T15:20:11.907Z,101330.69
2024-02-16T15:22:48.674Z,101329.78
2024-02-16T15:25:23.309Z,101339.16
2024-02-16T15:27:52.057Z,101328.16
2024-02-16T15:30:20.570Z,101332.75
2024-02-16T15:32:52.048Z,101333.88
2024-02-16T15:35:22.619Z,101347.22
2024-02-16T15:37:51.097Z,101351.00
2024-02-16T15:40:20.028Z,101352.88
2024-02-16T15:43:04.250Z,101360.88
2024-02-16T15:45:32.949Z,101357.56
2024-02-16T15:48:01.740Z,101356.78
2024-02-16T15:50:31.726Z,101363.03
2024-02-16T15:53:00.356Z,101366.84
2024-02-16T15:55:28.762Z,101360.94
2024-02-16T15:57:57.127Z,101363.03
2024-02-16T16:00:27.282Z,101375.59
2024-02-16T16:02:55.877Z,101370.97
2024-02-16T16:05:24.348Z,101377.16
2024-02-16T16:07:53.424Z,101385.34
2024-02-16T16:10:21.832Z,101380.75
2024-02-16T16:12:50.484Z,101390.22
2024-02-16T16:15:19.369Z,101380.91
2024-02-16T16:17:49.299Z,101388.41
2024-02-16T16:20:18.435Z,101387.59
2024-02-16T16:22:47.032Z,101390.59
2024-02-16T16:25:15.734Z,101379.41
2024-02-16T16:27:48.797Z,101385.03
2024-02-16T16:30:17.721Z,101397.84
2024-02-16T16:32:46.336Z,101398.91
2024-02-16T16:35:16.438Z,101392.78
2024-02-16T16:37:44.943Z,101398.53
2024-02-16T16:40:14.191Z,101400.88
2024-02-16T16:42:42.739Z,101408.91
2024-02-16T16:45:12.943Z,101407.88
2024-02-16T16:47:41.399Z,101409.50
2024-02-16T16:50:11.788Z,101413.88
2024-02-16T16:52:43.670Z,101408.56
2024-02-16T16:55:12.044Z,101409.69
2024-02-16T16:57:40.502Z,101414.09
2024-02-16T17:00:10.062Z,101419.50
2024-02-16T17:02:38.499Z,101416.84
2024-02-16T17:05:08.634Z,101422.13
2024-02-16T17:07:37.362Z,101419.50
2024-02-16T17:10:09.340Z,101419.97
2024-02-16T17:12:37.778Z,101425.25
2024-02-16T17:15:07.638Z,101421.59
2024-02-16T17:17:36.364Z,101426.53
2024-02-16T17:20:05.083Z,101425.72
2024-02-16T17:22:33.650Z,101431.03
2024-02-16T17:25:05.176Z,101427.13
2024-02-16T17:27:35.109Z,101432.53
2024-02-16T17:30:05.218Z,101431.50
2024-02-16T17:32:35.297Z,101427.72
2024-02-16T17:35:04.242Z,101423.78
2024-02-16T17:37:32.744Z,101425.06
2024-02-16T17:40:01.230Z,101432.44
2024-02-16T17:42:29.784Z,101432.09
2024-02-16T17:44:59.999Z,101430.72
2024-02-16T17:47:28.463Z,101439.34
2024-02-16T17:50:11.021Z,101437.63
2024-02-16T17:52:40.013Z,101445.81
2024-02-16T17:55:09.148Z,101443.28
2024-02-16T17:57:37.738Z,101446.28
2024-02-16T18:00:09.116Z,101442.03
2024-02-16T18:02:41.184Z,101438.94
2024-02-16T18:05:13.695Z,101437.66
2024-02-16T18:07:42.256Z,101435.69
2024-02-16T18:10:12.422Z,101443.19
2024-02-16T18:12:41.352Z,101432.59
2024-02-16T18:15:14.095Z,101435.81
2024-02-16T18:17:42.979Z,101440.09
2024-02-16T18:20:14.620Z,101443.75
2024-02-16T18:22:43.225Z,101431.91
2024-02-16T18:25:11.791Z,101431.44
2024-02-16T18:27:40.492Z,101431.06
2024-02-16T18:30:11.917Z,101427.72
2024-02-16T18:32:40.399Z,101426.38
2024-02-16T18:35:09.563Z,101429.72
2024-02-16T18:37:38.103Z,101439.72
2024-02-16T18:40:09.947Z,101444.56
2024-02-16T18:42:38.854Z,101434.88
2024-02-16T18:45:10.069Z,101447.91
2024-02-16T18:47:41.240Z,101444.13
2024-02-16T18:50:11.783Z,101441.81
2024-02-16T18:52:41.379Z,101442.03
2024-02-16T18:55:10.399Z,101447.91
2024-02-16T18:57:38.989Z,101454.25
2024-02-16T19:00:10.127Z,101451.25
2024-02-16T19:02:44.500Z,101448.72
2024-02-16T19:05:13.623Z,101459.09
2024-02-16T19:07:42.073Z,101459.31
2024-02-16T19:10:12.219Z,101469.09
2024-02-16T19:12:40.772Z,101466.34
2024-02-16T19:15:10.671Z,101473.50
2024-02-16T19:17:40.598Z,101467.38
2024-02-16T19:20:10.133Z,101477.16
2024-02-16T19:22:38.657Z,101472.66
2024-02-16T19:25:08.699Z,101467.84
2024-02-16T19:27:37.221Z,101476.25
2024-02-16T19:30:08.088Z,101479.03
2024-02-16T19:32:36.733Z,101485.25
2024-02-16T19:35:08.416Z,101484.06
2024-02-16T19:37:36.904Z,101485.69
2024-02-16T19:40:05.969Z,101485.25
2024-02-16T19:42:34.958Z,101487.28
2024-02-16T19:45:04.078Z,101476.69
2024-02-16T19:47:32.774Z,101487.44
2024-02-16T19:50:01.259Z,101491.00
2024-02-16T19:52:31.164Z,101485.69
2024-02-16T19:55:00.711Z,101493.97
2024-02-16T19:57:29.168Z,101478.06
2024-02-16T19:59:58.442Z,101485.44
2024-02-16T20:02:27.303Z,101493.25
2024-02-16T20:04:55.728Z,101484.38
2024-02-16T20:07:25.450Z,101487.38
2024-02-16T20:09:56.550Z,101483.56
2024-02-16T20:12:26.124Z,101479.66
2024-02-16T20:14:55.390Z,101488.50
2024-02-16T20:17:24.107Z,101495.75
2024-02-16T20:19:55.143Z,101494.25
2024-02-16T20:22:23.985Z,101496.22
2024-02-16T20:24:52.387Z,101488.03
2024-02-16T20:27:22.249Z,101487.22
2024-02-16T20:29:50.699Z,101497.94
2024-02-16T20:32:19.708Z,101495.97
2024-02-16T20:34:48.242Z,101493.47
2024-02-16T20:37:16.818Z,101498.72
2024-02-16T20:39:45.342Z,101503.69
2024-02-16T20:42:14.177Z,101499.88
2024-02-16T20:44:44.109Z,101507.34
2024-02-16T20:47:12.695Z,101491.69
2024-02-16T20:49:41.126Z,101508.63
2024-02-16T20:52:09.583Z,101510.22
2024-02-16T20:54:38.318Z,101485.84
2024-02-16T20:57:08.656Z,101497.22
2024-02-16T20:59:37.131Z,101492.75
2024-02-16T21:02:07.068Z,101498.28
2024-02-16T21:04:36.713Z,101496.66
2024-02-16T21:07:06.452Z,101494.00
2024-02-16T21:09:35.106Z,101487.47
2024-02-16T21:12:04.739Z,101487.91
2024-02-16T21:14:33.500Z,101501.72
2024-02-16T21:17:02.536Z,101494.00
2024-02-16T21:19:34.046Z,101493.66
2024-02-16T21:22:03.001Z,101503.19
2024-02-16T21:24:31.494Z,101513.78
2024-02-16T21:27:00.083Z,101508.38
2024-02-16T21:29:28.845Z,101510.78
2024-02-16T21:31:57.463Z,101510.78
2024-02-16T21:34:25.935Z,101504.31
2024-02-16T21:36:58.959Z,101509.84
2024-02-16T21:39:27.739Z,101505.38
2024-02-16T21:41:56.248Z,101511.13
2024-02-16T21:44:24.671Z,101503.91
2024-02-16T21:46:53.484Z,101504.06
2024-02-16T21:49:22.704Z,101508.41
2024-02-16T21:51:51.367Z,101498.94
2024-02-16T21:54:22.082Z,101510.66
2024-02-16T21:56:50.458Z,101511.53
2024-02-16T21:59:20.154Z,101504.88
2024-02-16T22:01:49.093Z,101506.38
2024-02-16T22:04:17.569Z,101503.59
2024-02-16T22:06:46.731Z,101499.66
2024-02-16T22:09:15.368Z,101502.78
2024-02-16T22:11:45.336Z,101490.00
2024-02-16T22:14:13.794Z,101501.63
2024-02-16T22:16:42.817Z,101512.66
2024-02-16T22:19:11.318Z,101508.19
2024-02-16T22:21:43.077Z,101507.34
2024-02-16T22:24:12.352Z,101516.13
2024-02-16T22:26:42.050Z,101509.78
2024-02-16T22:29:11.997Z,101522.78
2024-02-16T22:31:43.232Z,101513.09
2024-02-16T22:34:14.396Z,101523.22
2024-02-16T22:36:42.959Z,101519.56
2024-02-16T22:39:11.526Z,101520.00
2024-02-16T22:41:39.900Z,101521.03
2024-02-16T22:44:08.517Z,101520.91
2024-02-16T22:46:38.910Z,101516.28
2024-02-16T22:49:07.444Z,101516.50
2024-02-16T22:51:40.283Z,101524.81
2024-02-16T22:54:15.845Z,101520.97
2024-02-16T22:56:45.384Z,101522.16
2024-02-16T22:59:13.824Z,101526.03
2024-02-16T23:01:43.737Z,101524.56
2024-02-16T23:04:12.352Z,101522.53
2024-02-16T23:06:41.027Z,101525.09
2024-02-16T23:09:10.379Z,101523.09
2024-02-16T23:11:40.619Z,101521.63
2024-02-16T23:14:11.245Z,101523.00
2024-02-16T23:16:39.838Z,101517.38
2024-02-16T23:19:09.871Z,101526.94
2024-02-16T23:21:38.360Z,101523.69
2024-02-16T23:24:08.181Z,101529.41
2024-02-16T23:26:36.733Z,101524.56
2024-02-16T23:29:05.209Z,101520.91
2024-02-16T23:31:33.714Z,101525.75
2024-02-16T23:34:02.206Z,101522.53
2024-02-16T23:36:32.216Z,101520.00
2024-02-16T23:39:00.648Z,101527.38
2024-02-16T23:41:29.366Z,101528.63
2024-02-16T23:43:58.376Z,101523.56
2024-02-16T23:46:26.749Z,101521.81
2024-02-16T23:48:56.283Z,101525.03
2024-02-16T23:51:24.987Z,101525.63
2024-02-16T23:53:54.795Z,101527.31
2024-02-16T23:56:23.274Z,101530.97
2024-02-16T23:58:51.762Z,101526.94
